Time;durP1;ratioP1;P1;durP2;ratioP2;P2;SDS_P1;SDS_P2;PMS_P1;PMS_P2;Temp;Humidity;BMP_temperature;BMP_pressure;BME280_temperature;BME280_humidity;BME280_pressure;Samples;Min_cycle;Max_cycle;Signal;HPM_P1;HPM_P2
2023/09/17 00:01:11;;;;;;;11.30;10.32;;;;;;;;;;4997287;28;20042;-73
2023/09/17 00:03:37;;;;;;;11.10;10.20;;;;;;;;;;4983481;28;20504;-71
2023/09/17 00:06:04;;;;;;;10.73;9.75;;;;;;;;;;4987139;28;20038;-72
2023/09/17 00:08:32;;;;;;;12.10;11.05;;;;;;;;;;4983976;28;20038;-74
2023/09/17 00:10:58;;;;;;;11.23;10.32;;;;;;;;;;4992067;28;20495;-73
2023/09/17 00:13:24;;;;;;;11.95;10.82;;;;;;;;;;4985161;28;20038;-72
2023/09/17 00:15:49;;;;;;;11.57;10.57;;;;;;;;;;4987011;28;20042;-72
2023/09/17 00:18:15;;;;;;;11.43;10.52;;;;;;;;;;4985204;28;20026;-73
2023/09/17 00:20:41;;;;;;;11.98;10.88;;;;;;;;;;5003641;28;20038;-71
2023/09/17 00:23:07;;;;;;;11.20;10.30;;;;;;;;;;4999724;28;20037;-71
2023/09/17 00:25:33;;;;;;;11.85;10.95;;;;;;;;;;5003417;28;20438;-72
2023/09/17 00:27:59;;;;;;;12.13;11.13;;;;;;;;;;5001553;28;20042;-72
2023/09/17 00:30:24;;;;;;;12.27;11.20;;;;;;;;;;4998645;28;20042;-72
2023/09/17 00:32:50;;;;;;;12.48;11.38;;;;;;;;;;4983040;28;20030;-74
2023/09/17 00:35:16;;;;;;;12.23;11.27;;;;;;;;;;4998582;28;20045;-76
2023/09/17 00:37:42;;;;;;;12.60;11.32;;;;;;;;;;4982581;28;20030;-72
2023/09/17 00:40:11;;;;;;;12.75;11.55;;;;;;;;;;4996632;28;20042;-73
2023/09/17 00:42:38;;;;;;;12.80;11.75;;;;;;;;;;5000132;28;20022;-74
2023/09/17 00:45:04;;;;;;;12.27;11.38;;;;;;;;;;4983145;28;20549;-72
2023/09/17 00:47:31;;;;;;;13.40;11.90;;;;;;;;;;4995383;28;20038;-74
2023/09/17 00:49:59;;;;;;;13.10;12.00;;;;;;;;;;4988754;28;20038;-72
2023/09/17 00:52:25;;;;;;;13.30;12.07;;;;;;;;;;4981490;28;20590;-74
2023/09/17 00:54:51;;;;;;;14.98;12.98;;;;;;;;;;4984807;28;20065;-72
2023/09/17 00:57:17;;;;;;;14.77;13.52;;;;;;;;;;4981349;28;20092;-75
2023/09/17 00:59:44;;;;;;;14.38;13.13;;;;;;;;;;4995162;28;20121;-73
2023/09/17 01:02:11;;;;;;;15.48;13.93;;;;;;;;;;4982679;28;20038;-72
2023/09/17 01:04:40;;;;;;;14.10;12.95;;;;;;;;;;4983697;28;20030;-75
2023/09/17 01:07:07;;;;;;;;;;;;;;;;;;4983397;28;20041;-73
2023/09/17 01:09:33;;;;;;;13.00;11.80;;;;;;;;;;4981533;28;19914;-73
2023/09/17 01:12:00;;;;;;;13.45;12.18;;;;;;;;;;4982051;28;20046;-73
2023/09/17 01:14:26;;;;;;;13.35;12.27;;;;;;;;;;4998426;28;20054;-72
2023/09/17 01:16:54;;;;;;;13.07;11.98;;;;;;;;;;4979753;28;20035;-73
2023/09/17 01:19:29;;;;;;;14.00;12.75;;;;;;;;;;4982888;28;20052;-74
2023/09/17 01:22:09;;;;;;;14.07;12.73;;;;;;;;;;4979272;28;20121;-72
2023/09/17 01:24:43;;;;;;;14.23;12.80;;;;;;;;;;4981994;28;20033;-72
2023/09/17 01:27:10;;;;;;;12.45;11.45;;;;;;;;;;4996597;28;20043;-74
2023/09/17 01:29:42;;;;;;;12.95;11.88;;;;;;;;;;4999028;28;20042;-71
2023/09/17 01:32:08;;;;;;;13.30;12.00;;;;;;;;;;4996574;28;20050;-73
2023/09/17 01:34:37;;;;;;;12.98;11.68;;;;;;;;;;4980198;28;20431;-72
2023/09/17 01:37:07;;;;;;;13.07;11.95;;;;;;;;;;4983643;28;20042;-73
2023/09/17 01:39:41;;;;;;;12.95;11.80;;;;;;;;;;4980610;28;20121;-71
2023/09/17 01:42:08;;;;;;;13.73;11.70;;;;;;;;;;4983134;28;20038;-75
2023/09/17 01:44:35;;;;;;;13.00;12.00;;;;;;;;;;4979273;28;20045;-74
2023/09/17 01:47:03;;;;;;;13.77;12.20;;;;;;;;;;4996686;28;20026;-74
2023/09/17 01:49:33;;;;;;;13.38;12.27;;;;;;;;;;4998600;28;20042;-74
2023/09/17 01:52:00;;;;;;;13.60;12.50;;;;;;;;;;4979595;28;20057;-74
2023/09/17 01:54:26;;;;;;;13.30;12.20;;;;;;;;;;4982406;28;20046;-74
2023/09/17 01:56:51;;;;;;;13.60;12.30;;;;;;;;;;4979225;28;20049;-73
2023/09/17 01:59:17;;;;;;;13.20;12.07;;;;;;;;;;4995508;28;20038;-72
2023/09/17 02:01:43;;;;;;;13.55;12.38;;;;;;;;;;4997926;28;20049;-74
2023/09/17 02:04:09;;;;;;;12.60;11.50;;;;;;;;;;4982507;28;20061;-74
2023/09/17 02:06:36;;;;;;;12.80;11.63;;;;;;;;;;4980944;28;20034;-71
2023/09/17 02:09:08;;;;;;;14.40;11.68;;;;;;;;;;4980672;28;20030;-71
2023/09/17 02:11:34;;;;;;;12.43;11.43;;;;;;;;;;4997367;28;20052;-73
2023/09/17 02:13:59;;;;;;;12.23;11.15;;;;;;;;;;4982930;28;20065;-73
2023/09/17 02:16:25;;;;;;;13.00;11.82;;;;;;;;;;4981097;28;20069;-72
2023/09/17 02:18:51;;;;;;;12.25;11.20;;;;;;;;;;4979105;28;20034;-73
2023/09/17 02:21:16;;;;;;;12.57;11.48;;;;;;;;;;4992889;28;20035;-74
2023/09/17 02:23:44;;;;;;;12.68;11.38;;;;;;;;;;4979619;28;20030;-72
2023/09/17 02:26:10;;;;;;;12.75;11.75;;;;;;;;;;4982356;28;20420;-75
2023/09/17 02:28:35;;;;;;;11.85;10.80;;;;;;;;;;4990815;28;20034;-75
2023/09/17 02:31:02;;;;;;;13.20;11.63;;;;;;;;;;4971988;28;20046;-74
2023/09/17 02:33:30;;;;;;;12.48;11.20;;;;;;;;;;4981174;28;20038;-72
2023/09/17 02:35:56;;;;;;;11.97;11.07;;;;;;;;;;5000299;28;20104;-72
2023/09/17 02:38:22;;;;;;;11.52;10.48;;;;;;;;;;4992421;28;20778;-73
2023/09/17 02:40:48;;;;;;;11.88;10.93;;;;;;;;;;4982628;28;20034;-71
2023/09/17 02:43:16;;;;;;;11.80;10.85;;;;;;;;;;4995649;28;20100;-73
2023/09/17 02:45:42;;;;;;;13.05;11.60;;;;;;;;;;4993780;28;20594;-74
2023/09/17 02:48:08;;;;;;;13.23;11.93;;;;;;;;;;4995483;28;20084;-73
2023/09/17 02:50:33;;;;;;;11.88;10.93;;;;;;;;;;4996680;28;20034;-73
2023/09/17 02:52:59;;;;;;;12.52;11.43;;;;;;;;;;4982734;28;20041;-72
2023/09/17 02:55:24;;;;;;;12.40;11.30;;;;;;;;;;4994914;28;20521;-72
2023/09/17 02:57:50;;;;;;;12.68;11.60;;;;;;;;;;4997076;28;20026;-72
2023/09/17 03:00:17;;;;;;;12.90;11.85;;;;;;;;;;4980436;28;20038;-74
2023/09/17 03:02:47;;;;;;;12.60;11.45;;;;;;;;;;4980769;28;20050;-73
2023/09/17 03:05:14;;;;;;;13.55;12.02;;;;;;;;;;4993339;28;20499;-72
2023/09/17 03:07:41;;;;;;;12.90;11.90;;;;;;;;;;4979298;28;20122;-74
2023/09/17 03:10:08;;;;;;;13.07;11.98;;;;;;;;;;4981249;28;20046;-75
2023/09/17 03:12:34;;;;;;;12.45;11.45;;;;;;;;;;4996440;28;20076;-74
2023/09/17 03:15:02;;;;;;;13.02;11.93;;;;;;;;;;4999378;28;20042;-72
2023/09/17 03:17:28;;;;;;;13.13;11.02;;;;;;;;;;4994190;28;20524;-74
2023/09/17 03:19:54;;;;;;;12.15;11.18;;;;;;;;;;4980485;28;20044;-73
2023/09/17 03:22:19;;;;;;;12.50;11.50;;;;;;;;;;4980781;28;20436;-73
2023/09/17 03:24:45;;;;;;;12.82;11.73;;;;;;;;;;4997201;28;20089;-74
2023/09/17 03:27:11;;;;;;;12.73;11.68;;;;;;;;;;4995215;28;20085;-73
2023/09/17 03:29:37;;;;;;;12.68;11.38;;;;;;;;;;4978774;28;20030;-74
2023/09/17 03:32:04;;;;;;;14.45;11.63;;;;;;;;;;4980483;28;20041;-74
2023/09/17 03:34:29;;;;;;;12.63;11.48;;;;;;;;;;4978724;28;20034;-74
2023/09/17 03:36:55;;;;;;;12.18;11.13;;;;;;;;;;5000705;28;20053;-72
2023/09/17 03:39:22;;;;;;;12.00;10.90;;;;;;;;;;5001646;28;20103;-73
2023/09/17 03:41:47;;;;;;;12.45;11.27;;;;;;;;;;4984866;28;20480;-73
2023/09/17 03:44:14;;;;;;;12.23;11.23;;;;;;;;;;4979597;28;20057;-73
2023/09/17 03:46:40;;;;;;;12.02;11.02;;;;;;;;;;4995788;28;20093;-73
2023/09/17 03:49:06;;;;;;;11.68;10.77;;;;;;;;;;4984430;28;20041;-72
2023/09/17 03:51:32;;;;;;;12.60;11.60;;;;;;;;;;4982451;28;20038;-72
2023/09/17 03:53:59;;;;;;;12.40;11.38;;;;;;;;;;4984064;28;20109;-72
2023/09/17 03:56:26;;;;;;;12.82;11.73;;;;;;;;;;4997903;28;20415;-73
2023/09/17 03:58:53;;;;;;;13.32;12.15;;;;;;;;;;4983880;28;20038;-72
2023/09/17 04:01:20;;;;;;;12.07;11.07;;;;;;;;;;4983068;28;20050;-72
2023/09/17 04:03:46;;;;;;;12.63;11.50;;;;;;;;;;4983026;28;20181;-74
2023/09/17 04:06:12;;;;;;;12.75;11.65;;;;;;;;;;4979096;28;20034;-73
2023/09/17 04:08:38;;;;;;;12.93;11.70;;;;;;;;;;4982386;28;20038;-74
2023/09/17 04:11:04;;;;;;;13.20;12.05;;;;;;;;;;4983643;28;20045;-73
2023/09/17 04:13:30;;;;;;;13.25;12.10;;;;;;;;;;4997874;28;20042;-72
2023/09/17 04:15:55;;;;;;;13.77;12.50;;;;;;;;;;4980544;28;20042;-75
2023/09/17 04:18:22;;;;;;;13.77;12.48;;;;;;;;;;4983668;28;20076;-73
2023/09/17 04:20:48;;;;;;;13.30;12.18;;;;;;;;;;4985189;28;20113;-72
2023/09/17 04:23:13;;;;;;;13.45;12.25;;;;;;;;;;4985779;28;20030;-73
2023/09/17 04:25:39;;;;;;;12.52;11.55;;;;;;;;;;4982319;28;20545;-73
2023/09/17 04:28:06;;;;;;;13.45;12.05;;;;;;;;;;4993412;28;20121;-72
2023/09/17 04:30:31;;;;;;;14.77;12.00;;;;;;;;;;4976121;28;20054;-73
2023/09/17 04:32:57;;;;;;;12.95;11.85;;;;;;;;;;4982924;28;20541;-73
2023/09/17 04:35:23;;;;;;;12.68;11.52;;;;;;;;;;4980260;28;20069;-74
2023/09/17 04:37:49;;;;;;;13.38;12.27;;;;;;;;;;4982859;28;20612;-73
2023/09/17 04:40:17;;;;;;;13.27;11.77;;;;;;;;;;5000691;28;20093;-73
2023/09/17 04:42:45;;;;;;;12.93;11.70;;;;;;;;;;4980634;28;20111;-72
2023/09/17 04:45:32;;;;;;;13.93;12.52;;;;;;;;;;4977080;28;20543;-71
2023/09/17 04:47:58;;;;;;;13.07;11.98;;;;;;;;;;5002086;28;20038;-74
2023/09/17 04:50:25;;;;;;;13.48;12.20;;;;;;;;;;4999514;28;20113;-74
2023/09/17 04:52:51;;;;;;;12.88;11.77;;;;;;;;;;4982515;28;20031;-73
2023/09/17 04:55:17;;;;;;;13.45;11.85;;;;;;;;;;5000488;28;20170;-73
2023/09/17 04:57:43;;;;;;;13.05;11.95;;;;;;;;;;4999106;28;20042;-73
2023/09/17 05:00:11;;;;;;;13.18;11.85;;;;;;;;;;4997834;28;20045;-73
2023/09/17 05:02:40;;;;;;;12.93;11.73;;;;;;;;;;4995801;28;20033;-72
2023/09/17 05:05:10;;;;;;;12.85;11.68;;;;;;;;;;4996723;28;20066;-72
2023/09/17 05:07:38;;;;;;;13.85;12.18;;;;;;;;;;4997686;28;20141;-72
2023/09/17 05:10:06;;;;;;;12.18;11.05;;;;;;;;;;4982489;28;20579;-73
2023/09/17 05:12:31;;;;;;;12.25;11.25;;;;;;;;;;4994790;28;20117;-71
2023/09/17 05:14:57;;;;;;;12.43;11.32;;;;;;;;;;4996268;28;20117;-72
2023/09/17 05:17:22;;;;;;;12.45;11.45;;;;;;;;;;4998227;28;20038;-72
2023/09/17 05:19:48;;;;;;;13.65;10.70;;;;;;;;;;4998316;28;20030;-72
2023/09/17 05:22:14;;;;;;;12.05;11.02;;;;;;;;;;4997959;28;20031;-73
2023/09/17 05:24:40;;;;;;;12.32;11.27;;;;;;;;;;4998158;28;20450;-73
2023/09/17 05:27:06;;;;;;;12.23;11.23;;;;;;;;;;4990667;28;20492;-75
2023/09/17 05:29:32;;;;;;;12.32;11.15;;;;;;;;;;4999255;28;20066;-72
2023/09/17 05:31:57;;;;;;;11.68;10.70;;;;;;;;;;5010541;28;20034;-73
2023/09/17 05:34:23;;;;;;;18.88;11.63;;;;;;;;;;4991627;28;20042;-72
2023/09/17 05:36:49;;;;;;;12.75;11.65;;;;;;;;;;4988826;28;20047;-72
2023/09/17 05:39:15;;;;;;;11.98;10.88;;;;;;;;;;5005295;28;20046;-75
2023/09/17 05:41:41;;;;;;;12.32;11.27;;;;;;;;;;4989239;28;20523;-73
2023/09/17 05:44:06;;;;;;;11.60;10.60;;;;;;;;;;5007356;28;20038;-73
2023/09/17 05:46:32;;;;;;;11.88;10.90;;;;;;;;;;5003467;28;20201;-72
2023/09/17 05:48:58;;;;;;;12.10;10.82;;;;;;;;;;4991636;28;20045;-72
2023/09/17 05:51:23;;;;;;;11.50;10.35;;;;;;;;;;4987313;28;20038;-73
2023/09/17 05:53:49;;;;;;;11.60;10.40;;;;;;;;;;4984127;28;20038;-75
2023/09/17 05:56:14;;;;;;;11.32;10.40;;;;;;;;;;4996265;28;20155;-71
2023/09/17 05:58:41;;;;;;;10.88;10.07;;;;;;;;;;4994745;28;20046;-73
2023/09/17 06:01:08;;;;;;;11.00;10.20;;;;;;;;;;4995529;28;20026;-73
2023/09/17 06:03:33;;;;;;;11.45;10.45;;;;;;;;;;4995545;28;20034;-73
2023/09/17 06:05:59;;;;;;;11.68;10.57;;;;;;;;;;4982508;28;20062;-72
2023/09/17 06:08:28;;;;;;;10.70;9.70;;;;;;;;;;4974641;28;20042;-72
2023/09/17 06:10:55;;;;;;;10.70;9.90;;;;;;;;;;4978285;28;20077;-74
2023/09/17 06:13:22;;;;;;;11.13;10.23;;;;;;;;;;4998199;28;20041;-74
2023/09/17 06:15:48;;;;;;;11.10;10.02;;;;;;;;;;4979186;28;20705;-73
2023/09/17 06:18:16;;;;;;;10.82;9.98;;;;;;;;;;5000653;28;20108;-73
2023/09/17 06:20:42;;;;;;;11.77;10.07;;;;;;;;;;4996116;28;20639;-73
2023/09/17 06:23:08;;;;;;;11.23;10.23;;;;;;;;;;4980291;28;20038;-73
2023/09/17 06:25:33;;;;;;;10.80;9.93;;;;;;;;;;4997327;28;20038;-72
2023/09/17 06:27:59;;;;;;;12.32;10.02;;;;;;;;;;4994894;28;20930;-74
2023/09/17 06:30:25;;;;;;;11.93;10.80;;;;;;;;;;4981513;28;20042;-73
2023/09/17 06:32:50;;;;;;;11.48;10.48;;;;;;;;;;4984243;28;20033;-73
2023/09/17 06:35:16;;;;;;;12.18;11.00;;;;;;;;;;4980600;28;20041;-72
2023/09/17 06:37:42;;;;;;;11.90;10.90;;;;;;;;;;4998945;28;20129;-73
2023/09/17 06:40:10;;;;;;;10.68;9.68;;;;;;;;;;4982275;28;20045;-72
2023/09/17 06:42:36;;;;;;;11.15;10.25;;;;;;;;;;4997387;28;20654;-72
2023/09/17 06:45:02;;;;;;;11.30;10.18;;;;;;;;;;4979602;28;20034;-74
2023/09/17 06:47:28;;;;;;;11.43;10.32;;;;;;;;;;4981803;28;20074;-74
2023/09/17 06:49:53;;;;;;;11.50;10.40;;;;;;;;;;4981882;28;20031;-73
2023/09/17 06:52:19;;;;;;;10.43;9.52;;;;;;;;;;4981485;28;20508;-72
2023/09/17 06:54:44;;;;;;;10.65;9.63;;;;;;;;;;4978126;28;20046;-72
2023/09/17 06:57:10;;;;;;;10.70;9.70;;;;;;;;;;4980865;28;20049;-74
2023/09/17 06:59:36;;;;;;;10.68;9.68;;;;;;;;;;4979752;28;20150;-73
2023/09/17 07:02:01;;;;;;;11.05;10.18;;;;;;;;;;4982017;28;20038;-73
2023/09/17 07:04:27;;;;;;;10.93;9.82;;;;;;;;;;4981647;28;20075;-72
2023/09/17 07:06:53;;;;;;;11.18;10.18;;;;;;;;;;4980891;28;20038;-73
2023/09/17 07:09:19;;;;;;;10.60;9.70;;;;;;;;;;4981944;28;20042;-73
2023/09/17 07:11:44;;;;;;;10.25;9.45;;;;;;;;;;4978253;28;20030;-74
2023/09/17 07:14:10;;;;;;;11.00;9.93;;;;;;;;;;4981487;28;20531;-74
2023/09/17 07:16:36;;;;;;;10.82;9.95;;;;;;;;;;4980374;28;20699;-72
2023/09/17 07:19:03;;;;;;;10.32;9.40;;;;;;;;;;4978079;28;20460;-72
2023/09/17 07:21:30;;;;;;;9.77;9.02;;;;;;;;;;4981491;28;20103;-73
2023/09/17 07:23:56;;;;;;;10.30;9.48;;;;;;;;;;4982543;28;20845;-74
2023/09/17 07:26:22;;;;;;;9.93;9.10;;;;;;;;;;4978291;28;20182;-74
2023/09/17 07:28:47;;;;;;;9.82;9.02;;;;;;;;;;4981617;28;20034;-72
2023/09/17 07:31:14;;;;;;;10.85;9.95;;;;;;;;;;4979639;28;20038;-74
2023/09/17 07:33:42;;;;;;;13.25;10.38;;;;;;;;;;4979966;28;20034;-72
2023/09/17 07:36:09;;;;;;;11.55;10.38;;;;;;;;;;4979165;28;20061;-72
2023/09/17 07:38:34;;;;;;;10.60;9.70;;;;;;;;;;4978157;28;20066;-73
2023/09/17 07:41:00;;;;;;;10.75;9.93;;;;;;;;;;4982769;28;20054;-72
2023/09/17 07:43:25;;;;;;;11.13;10.23;;;;;;;;;;4981071;28;20458;-72
2023/09/17 07:45:51;;;;;;;10.52;9.52;;;;;;;;;;4990346;28;20041;-74
2023/09/17 07:48:16;;;;;;;10.57;9.57;;;;;;;;;;4978405;28;20042;-74
2023/09/17 07:50:43;;;;;;;10.32;9.43;;;;;;;;;;4982629;28;20521;-72
2023/09/17 07:53:09;;;;;;;10.40;9.40;;;;;;;;;;4980904;28;20054;-73
2023/09/17 07:55:35;;;;;;;9.90;9.10;;;;;;;;;;4977573;28;20035;-73
2023/09/17 07:58:00;;;;;;;10.25;9.35;;;;;;;;;;4979509;28;20148;-71
2023/09/17 08:00:26;;;;;;;9.93;9.02;;;;;;;;;;4979800;28;20074;-72
2023/09/17 08:03:49;;;;;;;10.18;9.10;;;;;;;;;;4992325;28;20499;-75
2023/09/17 08:06:15;;;;;;;10.27;8.75;;;;;;;;;;4987812;28;20214;-74
2023/09/17 08:08:45;;;;;;;9.07;8.25;;;;;;;;;;4980428;28;20094;-71
2023/09/17 08:11:15;;;;;;;9.00;8.30;;;;;;;;;;4980205;28;20104;-71
2023/09/17 08:13:41;;;;;;;8.95;8.15;;;;;;;;;;4983611;28;20408;-71
2023/09/17 08:16:07;;;;;;;9.82;8.88;;;;;;;;;;4984114;28;20038;-72
2023/09/17 08:18:32;;;;;;;8.60;7.90;;;;;;;;;;4973063;28;20039;-72
2023/09/17 08:20:58;;;;;;;8.45;7.68;;;;;;;;;;4977989;28;20034;-72
2023/09/17 08:23:24;;;;;;;8.43;7.72;;;;;;;;;;4979205;28;20042;-74
2023/09/17 08:26:10;;;;;;;8.38;7.78;;;;;;;;;;4969973;28;20061;-73
2023/09/17 08:28:56;;;;;;;8.48;7.78;;;;;;;;;;4978567;28;20454;-74
2023/09/17 08:31:42;;;;;;;8.65;7.95;;;;;;;;;;4977017;28;20042;-73
2023/09/17 08:34:29;;;;;;;8.02;7.43;;;;;;;;;;4976669;28;20035;-72
2023/09/17 08:36:54;;;;;;;8.40;7.80;;;;;;;;;;4980823;28;20034;-74
2023/09/17 08:39:20;;;;;;;8.90;8.20;;;;;;;;;;4974814;28;20065;-75
2023/09/17 08:41:47;;;;;;;8.57;7.97;;;;;;;;;;4977512;28;20526;-75
2023/09/17 08:44:14;;;;;;;8.98;7.95;;;;;;;;;;4972360;28;20102;-74
2023/09/17 08:46:40;;;;;;;9.05;8.25;;;;;;;;;;4971254;28;20039;-72
2023/09/17 08:49:06;;;;;;;8.50;7.70;;;;;;;;;;4973896;28;20038;-72
2023/09/17 08:51:37;;;;;;;8.80;8.00;;;;;;;;;;4977886;28;20046;-71
2023/09/17 08:54:23;;;;;;;8.13;7.50;;;;;;;;;;4975902;28;20057;-77
2023/09/17 08:56:50;;;;;;;8.40;7.60;;;;;;;;;;4974761;28;20092;-74
2023/09/17 08:59:28;;;;;;;7.90;7.30;;;;;;;;;;4978753;28;20492;-73
2023/09/17 09:01:55;;;;;;;8.07;7.32;;;;;;;;;;4976230;28;20034;-73
2023/09/17 09:04:23;;;;;;;8.05;7.28;;;;;;;;;;4975570;28;20034;-76
2023/09/17 09:06:49;;;;;;;8.38;7.10;;;;;;;;;;4975236;28;20045;-72
2023/09/17 09:09:16;;;;;;;7.70;7.15;;;;;;;;;;4975522;28;20066;-74
2023/09/17 09:11:42;;;;;;;9.18;7.40;;;;;;;;;;4974214;28;20045;-76
2023/09/17 09:14:08;;;;;;;8.80;8.07;;;;;;;;;;4971662;28;20455;-74
2023/09/17 09:16:36;;;;;;;8.70;7.90;;;;;;;;;;4976229;28;20120;-74
2023/09/17 09:19:02;;;;;;;8.98;8.18;;;;;;;;;;4976491;28;20030;-73
2023/09/17 09:21:28;;;;;;;9.00;7.72;;;;;;;;;;4972079;28;20050;-73
2023/09/17 09:23:57;;;;;;;8.95;8.07;;;;;;;;;;4972597;28;20100;-73
2023/09/17 09:26:33;;;;;;;;;;;;;;;;;;4974805;28;20042;-72
2023/09/17 09:28:59;;;;;;;7.88;7.20;;;;;;;;;;4974426;28;20039;-73
2023/09/17 09:31:26;;;;;;;8.18;7.57;;;;;;;;;;4975852;28;20077;-73
2023/09/17 09:33:53;;;;;;;7.45;6.88;;;;;;;;;;4973630;28;20103;-75
2023/09/17 09:36:20;;;;;;;7.10;6.50;;;;;;;;;;4977928;28;20038;-73
2023/09/17 09:38:45;;;;;;;7.60;7.03;;;;;;;;;;4974898;28;20038;-73
2023/09/17 09:41:11;;;;;;;7.70;6.97;;;;;;;;;;4975539;28;20092;-74
2023/09/17 09:43:37;;;;;;;7.60;6.88;;;;;;;;;;4973373;28;20038;-74
2023/09/17 09:46:04;;;;;;;7.38;6.68;;;;;;;;;;4972655;28;20750;-75
2023/09/17 09:48:37;;;;;;;7.60;7.00;;;;;;;;;;4976129;28;20073;-72
2023/09/17 09:51:03;;;;;;;7.10;6.50;;;;;;;;;;4977103;28;20851;-73
2023/09/17 09:53:29;;;;;;;6.88;6.30;;;;;;;;;;4974516;28;20048;-72
2023/09/17 09:55:55;;;;;;;6.90;6.50;;;;;;;;;;4975301;28;20038;-72
2023/09/17 09:58:21;;;;;;;6.80;6.30;;;;;;;;;;4975006;28;20073;-74
2023/09/17 10:00:47;;;;;;;7.03;6.50;;;;;;;;;;4974520;28;20527;-73
2023/09/17 10:03:20;;;;;;;7.03;6.32;;;;;;;;;;4976455;28;20062;-73
2023/09/17 10:05:46;;;;;;;6.32;5.82;;;;;;;;;;4975327;28;20046;-75
2023/09/17 10:08:13;;;;;;;6.75;6.18;;;;;;;;;;4991817;28;20585;-73
2023/09/17 10:10:40;;;;;;;7.63;6.07;;;;;;;;;;4972935;28;20403;-73
2023/09/17 10:13:06;;;;;;;7.10;6.60;;;;;;;;;;4974805;28;20092;-73
2023/09/17 10:15:34;;;;;;;7.88;7.07;;;;;;;;;;4991582;28;20057;-73
2023/09/17 10:18:00;;;;;;;7.40;6.80;;;;;;;;;;4977304;28;20075;-72
2023/09/17 10:20:28;;;;;;;7.47;6.70;;;;;;;;;;4975925;28;20046;-76
2023/09/17 10:22:55;;;;;;;10.40;6.60;;;;;;;;;;4974843;28;20507;-74
2023/09/17 10:25:23;;;;;;;7.45;6.80;;;;;;;;;;4977212;28;20528;-75
2023/09/17 10:27:50;;;;;;;7.18;6.65;;;;;;;;;;4974417;28;20046;-73
2023/09/17 10:30:17;;;;;;;9.80;7.30;;;;;;;;;;4973434;28;20943;-71
2023/09/17 10:32:44;;;;;;;8.40;7.18;;;;;;;;;;4976439;28;20120;-74
2023/09/17 10:35:11;;;;;;;7.80;7.07;;;;;;;;;;4978143;28;20038;-75
2023/09/17 10:37:39;;;;;;;8.93;7.20;;;;;;;;;;4991846;28;20042;-73
2023/09/17 10:40:10;;;;;;;10.55;7.05;;;;;;;;;;4975303;28;20640;-72
2023/09/17 10:42:39;;;;;;;7.78;7.03;;;;;;;;;;4976818;28;20047;-73
2023/09/17 10:45:10;;;;;;;11.05;7.35;;;;;;;;;;4991797;28;20042;-72
2023/09/17 10:47:38;;;;;;;11.98;7.40;;;;;;;;;;4975461;28;20061;-72
2023/09/17 10:50:05;;;;;;;11.50;7.15;;;;;;;;;;4975376;28;20499;-73
2023/09/17 10:52:31;;;;;;;9.73;7.50;;;;;;;;;;4972480;28;20522;-73
2023/09/17 10:54:58;;;;;;;8.68;7.82;;;;;;;;;;4973408;28;20045;-74
2023/09/17 10:57:46;;;;;;;11.23;7.20;;;;;;;;;;4977343;28;20129;-73
2023/09/17 11:00:20;;;;;;;7.93;7.13;;;;;;;;;;4975442;28;20030;-74
2023/09/17 11:02:53;;;;;;;8.07;7.22;;;;;;;;;;4971260;28;20046;-73
2023/09/17 11:05:22;;;;;;;10.45;7.40;;;;;;;;;;4973967;28;20161;-72
2023/09/17 11:07:51;;;;;;;10.05;7.00;;;;;;;;;;4974735;28;20613;-73
2023/09/17 11:10:16;;;;;;;;;;;;;;;;;;4973148;28;20495;-73
2023/09/17 11:12:42;;;;;;;7.68;6.95;;;;;;;;;;4976505;28;19914;-74
2023/09/17 11:15:09;;;;;;;10.57;7.30;;;;;;;;;;4976842;28;20041;-74
2023/09/17 11:17:34;;;;;;;11.85;7.18;;;;;;;;;;4991365;28;20034;-72
2023/09/17 11:20:00;;;;;;;8.27;7.47;;;;;;;;;;4972878;28;20045;-74
2023/09/17 11:22:29;;;;;;;9.30;6.90;;;;;;;;;;4980685;28;20111;-70
2023/09/17 11:24:55;;;;;;;8.30;7.22;;;;;;;;;;4981091;28;20043;-71
2023/09/17 11:27:51;;;;;;;9.02;6.65;;;;;;;;;;4973602;28;20680;-72
2023/09/17 11:30:22;;;;;;;8.93;7.07;;;;;;;;;;4974568;28;20047;-70
2023/09/17 11:32:54;;;;;;;10.30;7.00;;;;;;;;;;4972945;28;20550;-72
2023/09/17 11:35:22;;;;;;;9.13;7.10;;;;;;;;;;4975586;28;20039;-71
2023/09/17 11:37:48;;;;;;;10.00;7.22;;;;;;;;;;4973367;28;20403;-72
2023/09/17 11:40:15;;;;;;;8.77;7.03;;;;;;;;;;4973974;28;20845;-70
2023/09/17 11:42:42;;;;;;;11.55;7.35;;;;;;;;;;4972291;28;20049;-71
2023/09/17 11:45:08;;;;;;;16.48;7.72;;;;;;;;;;4991614;28;20504;-72
2023/09/17 11:47:35;;;;;;;7.78;7.13;;;;;;;;;;4977668;28;20046;-71
2023/09/17 11:50:02;;;;;;;7.82;7.15;;;;;;;;;;4977215;28;20030;-70
2023/09/17 11:52:28;;;;;;;11.70;7.45;;;;;;;;;;4976556;28;20177;-72
2023/09/17 11:55:01;;;;;;;11.85;7.45;;;;;;;;;;4971048;28;20023;-70
2023/09/17 11:57:26;;;;;;;7.80;7.10;;;;;;;;;;4974834;28;20043;-70
2023/09/17 11:59:53;;;;;;;7.70;6.90;;;;;;;;;;4976756;28;20399;-72
2023/09/17 12:02:19;;;;;;;16.05;7.07;;;;;;;;;;4978252;28;20101;-71
2023/09/17 12:04:45;;;;;;;9.05;6.70;;;;;;;;;;4962634;28;20543;-71
2023/09/17 12:07:12;;;;;;;9.10;7.18;;;;;;;;;;4961486;28;20121;-70
2023/09/17 12:09:52;;;;;;;11.55;7.30;;;;;;;;;;4973469;28;20034;-69
2023/09/17 12:12:19;;;;;;;46.95;9.10;;;;;;;;;;4974974;28;20712;-70
2023/09/17 12:14:47;;;;;;;7.55;6.85;;;;;;;;;;4978364;28;20026;-73
2023/09/17 12:17:14;;;;;;;8.02;6.40;;;;;;;;;;4977076;28;20073;-73
2023/09/17 12:19:40;;;;;;;8.63;7.00;;;;;;;;;;4975960;28;20562;-73
2023/09/17 12:22:09;;;;;;;7.63;6.75;;;;;;;;;;5000578;28;20708;-73
2023/09/17 12:24:37;;;;;;;8.43;6.80;;;;;;;;;;4978850;28;20540;-73
2023/09/17 12:29:41;;;;;;;11.23;6.95;;;;;;;;;;4983784;28;20065;-74
2023/09/17 12:32:10;;;;;;;8.95;6.95;;;;;;;;;;4989757;28;20065;-74
2023/09/17 12:34:36;;;;;;;;;;;;;;;;;;4979041;28;20058;-73
2023/09/17 12:37:02;;;;;;;7.50;6.80;;;;;;;;;;4978867;28;19952;-73
2023/09/17 12:39:28;;;;;;;10.23;7.43;;;;;;;;;;4975754;28;20156;-73
2023/09/17 12:41:54;;;;;;;10.57;6.68;;;;;;;;;;4986394;28;20504;-72
2023/09/17 12:44:19;;;;;;;7.78;6.82;;;;;;;;;;4978099;28;20046;-73
2023/09/17 12:46:46;;;;;;;8.57;6.75;;;;;;;;;;4998573;28;21268;-73
2023/09/17 12:49:11;;;;;;;7.85;7.07;;;;;;;;;;4977547;28;20042;-73
2023/09/17 12:51:38;;;;;;;7.47;6.68;;;;;;;;;;4981336;28;20405;-72
2023/09/17 12:54:07;;;;;;;7.40;6.72;;;;;;;;;;4963134;28;20061;-74
2023/09/17 12:56:32;;;;;;;8.98;6.97;;;;;;;;;;4980267;28;20257;-73
2023/09/17 12:58:59;;;;;;;8.82;7.18;;;;;;;;;;4975303;28;20566;-72
2023/09/17 13:01:24;;;;;;;8.77;7.50;;;;;;;;;;4975371;28;20761;-72
2023/09/17 13:04:10;;;;;;;8.32;6.82;;;;;;;;;;4979863;28;20042;-73
2023/09/17 13:06:36;;;;;;;9.43;7.15;;;;;;;;;;4972001;28;20085;-72
2023/09/17 13:09:02;;;;;;;8.63;7.25;;;;;;;;;;4975088;28;20062;-73
2023/09/17 13:11:28;;;;;;;8.00;7.20;;;;;;;;;;4978354;28;20037;-71
2023/09/17 13:13:57;;;;;;;12.32;7.13;;;;;;;;;;4978212;28;20109;-73
2023/09/17 13:16:22;;;;;;;;;;;;;;;;;;4979909;28;20053;-73
2023/09/17 13:18:49;;;;;;;10.60;7.28;;;;;;;;;;4975430;28;20306;-72
2023/09/17 13:21:16;;;;;;;7.57;6.78;;;;;;;;;;4981060;28;20045;-73
2023/09/17 13:23:42;;;;;;;8.68;6.90;;;;;;;;;;4978842;28;20088;-73
2023/09/17 13:26:08;;;;;;;10.07;6.60;;;;;;;;;;4977862;28;20034;-73
2023/09/17 13:28:36;;;;;;;8.13;7.13;;;;;;;;;;4977183;28;20042;-73
2023/09/17 13:31:03;;;;;;;;;;;;;;;;;;4976289;28;20674;-73
2023/09/17 13:33:34;;;;;;;8.15;6.85;;;;;;;;;;4981861;28;19917;-73
2023/09/17 13:36:02;;;;;;;7.45;6.70;;;;;;;;;;4991269;28;20061;-74
2023/09/17 13:38:28;;;;;;;;;;;;;;;;;;4978560;28;20069;-73
2023/09/17 13:40:53;;;;;;;10.48;7.30;;;;;;;;;;4976199;28;19921;-74
2023/09/17 13:43:20;;;;;;;10.43;6.80;;;;;;;;;;4993433;28;20041;-73
2023/09/17 13:45:54;;;;;;;7.65;7.03;;;;;;;;;;4975446;28;20716;-73
2023/09/17 13:48:20;;;;;;;8.70;6.57;;;;;;;;;;4994094;28;20066;-73
2023/09/17 13:50:47;;;;;;;8.15;7.38;;;;;;;;;;4979106;28;20509;-73
2023/09/17 13:53:14;;;;;;;12.60;7.28;;;;;;;;;;4997741;28;20069;-73
2023/09/17 13:55:40;;;;;;;7.60;6.93;;;;;;;;;;4976482;28;20049;-73
2023/09/17 13:58:06;;;;;;;10.55;6.70;;;;;;;;;;4979002;28;20038;-74
2023/09/17 14:00:33;;;;;;;13.15;7.00;;;;;;;;;;4995459;28;20042;-73
2023/09/17 14:03:17;;;;;;;7.90;6.95;;;;;;;;;;4999558;28;20058;-73
2023/09/17 14:05:43;;;;;;;7.90;7.20;;;;;;;;;;4978747;28;20127;-75
2023/09/17 14:08:10;;;;;;;8.68;7.10;;;;;;;;;;4992720;28;20038;-74
2023/09/17 14:10:35;;;;;;;8.30;7.00;;;;;;;;;;4978764;28;20034;-74
2023/09/17 14:13:03;;;;;;;7.32;6.63;;;;;;;;;;4975956;28;20026;-74
2023/09/17 14:15:32;;;;;;;12.25;6.97;;;;;;;;;;4978527;28;20034;-74
2023/09/17 14:17:58;;;;;;;;;;;;;;;;;;4982884;28;20042;-72
2023/09/17 14:20:23;;;;;;;9.00;6.85;;;;;;;;;;4977376;28;20489;-72
2023/09/17 14:22:49;;;;;;;7.75;6.47;;;;;;;;;;4975940;28;20038;-73
2023/09/17 14:25:15;;;;;;;9.10;6.90;;;;;;;;;;4976980;28;20113;-74
2023/09/17 14:27:40;;;;;;;8.02;7.22;;;;;;;;;;4974983;28;20069;-74
2023/09/17 14:30:10;;;;;;;8.32;6.82;;;;;;;;;;4974965;28;20034;-73
2023/09/17 14:32:40;;;;;;;12.27;7.40;;;;;;;;;;4999712;28;20049;-74
2023/09/17 14:35:06;;;;;;;7.50;6.80;;;;;;;;;;4978120;28;20127;-74